sensor_id;sensor_type;location;lat;lon;timestamp;temperature;humidity
38020;DHT22;23829;51.350;17.286;2023-04-01T00:01:01;24.60;38.60
38020;DHT22;23829;51.350;17.286;2023-04-01T00:03:29;24.50;39.10
38020;DHT22;23829;51.350;17.286;2023-04-01T00:05:58;24.60;38.90
38020;DHT22;23829;51.350;17.286;2023-04-01T00:08:25;24.80;38.40
38020;DHT22;23829;51.350;17.286;2023-04-01T00:10:52;24.80;38.50
38020;DHT22;23829;51.350;17.286;2023-04-01T00:13:19;24.80;38.60
38020;DHT22;23829;51.350;17.286;2023-04-01T00:15:46;24.80;38.60
38020;DHT22;23829;51.350;17.286;2023-04-01T00:18:13;24.70;39.00
38020;DHT22;23829;51.350;17.286;2023-04-01T00:20:44;24.70;38.90
38020;DHT22;23829;51.350;17.286;2023-04-01T00:23:11;24.80;38.70
38020;DHT22;23829;51.350;17.286;2023-04-01T00:25:37;25.00;38.10
38020;DHT22;23829;51.350;17.286;2023-04-01T00:28:04;24.70;38.70
38020;DHT22;23829;51.350;17.286;2023-04-01T00:30:30;24.50;39.00
38020;DHT22;23829;51.350;17.286;2023-04-01T00:32:57;24.80;38.90
38020;DHT22;23829;51.350;17.286;2023-04-01T00:35:23;25.00;38.40
38020;DHT22;23829;51.350;17.286;2023-04-01T00:37:50;25.00;38.50
38020;DHT22;23829;51.350;17.286;2023-04-01T00:40:36;24.60;38.70
38020;DHT22;23829;51.350;17.286;2023-04-01T00:43:05;24.90;38.50
38020;DHT22;23829;51.350;17.286;2023-04-01T00:45:39;24.90;38.70
38020;DHT22;23829;51.350;17.286;2023-04-01T00:48:16;24.90;38.40
38020;DHT22;23829;51.350;17.286;2023-04-01T00:50:54;24.80;38.70
38020;DHT22;23829;51.350;17.286;2023-04-01T00:53:22;24.70;38.60
38020;DHT22;23829;51.350;17.286;2023-04-01T00:56:34;25.00;38.60
38020;DHT22;23829;51.350;17.286;2023-04-01T00:58:44;25.00;38.40
38020;DHT22;23829;51.350;17.286;2023-04-01T01:01:12;25.00;38.30
38020;DHT22;23829;51.350;17.286;2023-04-01T01:03:39;24.80;39.10
38020;DHT22;23829;51.350;17.286;2023-04-01T01:09:30;24.50;39.60
38020;DHT22;23829;51.350;17.286;2023-04-01T01:17:35;24.60;39.50
38020;DHT22;23829;51.350;17.286;2023-04-01T01:31:24;25.20;38.40
38020;DHT22;23829;51.350;17.286;2023-04-01T01:36:56;25.20;38.50
38020;DHT22;23829;51.350;17.286;2023-04-01T01:39:27;25.10;38.30
38020;DHT22;23829;51.350;17.286;2023-04-01T01:41:55;25.10;38.30
38020;DHT22;23829;51.350;17.286;2023-04-01T01:44:25;25.50;38.20
38020;DHT22;23829;51.350;17.286;2023-04-01T01:46:53;25.40;38.10
38020;DHT22;23829;51.350;17.286;2023-04-01T01:49:22;25.30;38.20
38020;DHT22;23829;51.350;17.286;2023-04-01T01:51:48;25.30;38.30
38020;DHT22;23829;51.350;17.286;2023-04-01T01:54:18;25.30;38.10
38020;DHT22;23829;51.350;17.286;2023-04-01T01:56:48;25.20;38.50
38020;DHT22;23829;51.350;17.286;2023-04-01T01:59:17;25.40;38.40
38020;DHT22;23829;51.350;17.286;2023-04-01T02:01:50;25.40;38.50
38020;DHT22;23829;51.350;17.286;2023-04-01T02:04:19;25.30;38.50
38020;DHT22;23829;51.350;17.286;2023-04-01T02:06:53;25.10;38.80
38020;DHT22;23829;51.350;17.286;2023-04-01T02:09:22;25.00;39.10
38020;DHT22;23829;51.350;17.286;2023-04-01T02:11:56;25.10;38.90
38020;DHT22;23829;51.350;17.286;2023-04-01T02:14:26;25.20;39.10
38020;DHT22;23829;51.350;17.286;2023-04-01T02:17:15;25.20;39.20
38020;DHT22;23829;51.350;17.286;2023-04-01T02:20:05;25.00;39.30
38020;DHT22;23829;51.350;17.286;2023-04-01T02:22:33;25.10;39.10
38020;DHT22;23829;51.350;17.286;2023-04-01T02:25:07;25.10;39.50
38020;DHT22;23829;51.350;17.286;2023-04-01T02:27:34;25.30;39.10
38020;DHT22;23829;51.350;17.286;2023-04-01T02:30:01;25.30;39.20
38020;DHT22;23829;51.350;17.286;2023-04-01T02:32:28;25.30;38.90
38020;DHT22;23829;51.350;17.286;2023-04-01T02:34:56;25.30;39.40
38020;DHT22;23829;51.350;17.286;2023-04-01T02:37:23;25.20;39.40
38020;DHT22;23829;51.350;17.286;2023-04-01T02:39:49;25.20;39.50
38020;DHT22;23829;51.350;17.286;2023-04-01T02:42:16;25.30;39.30
38020;DHT22;23829;51.350;17.286;2023-04-01T02:44:43;25.00;39.70
38020;DHT22;23829;51.350;17.286;2023-04-01T02:47:09;25.30;39.40
38020;DHT22;23829;51.350;17.286;2023-04-01T02:49:35;24.90;40.00
38020;DHT22;23829;51.350;17.286;2023-04-01T02:52:02;24.80;40.60
38020;DHT22;23829;51.350;17.286;2023-04-01T02:54:28;25.00;40.20
38020;DHT22;23829;51.350;17.286;2023-04-01T02:56:55;25.10;39.90
38020;DHT22;23829;51.350;17.286;2023-04-01T02:59:22;25.20;40.20
38020;DHT22;23829;51.350;17.286;2023-04-01T03:01:48;25.30;40.20
38020;DHT22;23829;51.350;17.286;2023-04-01T03:04:15;25.40;40.20
38020;DHT22;23829;51.350;17.286;2023-04-01T03:06:41;25.40;40.30
38020;DHT22;23829;51.350;17.286;2023-04-01T03:09:08;25.40;40.20
38020;DHT22;23829;51.350;17.286;2023-04-01T03:11:34;25.30;40.00
38020;DHT22;23829;51.350;17.286;2023-04-01T03:14:01;25.50;40.10
38020;DHT22;23829;51.350;17.286;2023-04-01T03:16:28;25.60;39.90
38020;DHT22;23829;51.350;17.286;2023-04-01T03:18:54;25.40;39.90
38020;DHT22;23829;51.350;17.286;2023-04-01T03:21:23;25.60;39.90
38020;DHT22;23829;51.350;17.286;2023-04-01T03:23:50;25.40;39.80
38020;DHT22;23829;51.350;17.286;2023-04-01T03:26:17;25.50;40.00
38020;DHT22;23829;51.350;17.286;2023-04-01T03:28:45;25.60;39.70
38020;DHT22;23829;51.350;17.286;2023-04-01T03:31:12;25.50;39.80
38020;DHT22;23829;51.350;17.286;2023-04-01T03:33:44;25.50;40.00
38020;DHT22;23829;51.350;17.286;2023-04-01T03:36:11;25.40;40.20
38020;DHT22;23829;51.350;17.286;2023-04-01T03:38:43;25.20;40.20
38020;DHT22;23829;51.350;17.286;2023-04-01T03:41:13;25.30;40.30
38020;DHT22;23829;51.350;17.286;2023-04-01T03:43:40;25.40;40.20
38020;DHT22;23829;51.350;17.286;2023-04-01T03:46:06;25.50;40.00
38020;DHT22;23829;51.350;17.286;2023-04-01T03:48:33;25.50;39.80
38020;DHT22;23829;51.350;17.286;2023-04-01T03:50:59;25.10;40.20
38020;DHT22;23829;51.350;17.286;2023-04-01T03:53:26;25.10;40.50
38020;DHT22;23829;51.350;17.286;2023-04-01T03:55:56;25.20;40.60
38020;DHT22;23829;51.350;17.286;2023-04-01T03:58:23;25.30;40.10
38020;DHT22;23829;51.350;17.286;2023-04-01T04:00:51;25.40;39.90
38020;DHT22;23829;51.350;17.286;2023-04-01T04:03:17;25.30;40.00
38020;DHT22;23829;51.350;17.286;2023-04-01T04:05:47;25.50;39.80
38020;DHT22;23829;51.350;17.286;2023-04-01T04:08:16;25.80;39.50
38020;DHT22;23829;51.350;17.286;2023-04-01T04:10:43;25.60;39.80
38020;DHT22;23829;51.350;17.286;2023-04-01T04:13:09;25.60;39.60
38020;DHT22;23829;51.350;17.286;2023-04-01T04:15:42;25.60;39.80
38020;DHT22;23829;51.350;17.286;2023-04-01T04:18:08;25.50;39.60
38020;DHT22;23829;51.350;17.286;2023-04-01T04:20:35;25.30;40.10
38020;DHT22;23829;51.350;17.286;2023-04-01T04:23:02;25.50;39.70
38020;DHT22;23829;51.350;17.286;2023-04-01T04:25:29;25.60;39.70
38020;DHT22;23829;51.350;17.286;2023-04-01T04:27:55;25.50;39.80
38020;DHT22;23829;51.350;17.286;2023-04-01T04:30:21;25.40;40.00
38020;DHT22;23829;51.350;17.286;2023-04-01T04:32:48;25.60;40.00
38020;DHT22;23829;51.350;17.286;2023-04-01T04:35:15;25.50;40.20
38020;DHT22;23829;51.350;17.286;2023-04-01T04:37:41;25.40;39.90
38020;DHT22;23829;51.350;17.286;2023-04-01T04:40:08;25.40;40.40
38020;DHT22;23829;51.350;17.286;2023-04-01T04:42:34;25.40;40.40
38020;DHT22;23829;51.350;17.286;2023-04-01T04:45:06;25.30;40.60
38020;DHT22;23829;51.350;17.286;2023-04-01T04:47:34;25.50;40.20
38020;DHT22;23829;51.350;17.286;2023-04-01T04:50:01;25.40;40.50
38020;DHT22;23829;51.350;17.286;2023-04-01T04:52:28;25.40;40.30
38020;DHT22;23829;51.350;17.286;2023-04-01T04:54:54;25.20;40.50
38020;DHT22;23829;51.350;17.286;2023-04-01T04:57:21;25.10;40.80
38020;DHT22;23829;51.350;17.286;2023-04-01T04:59:53;25.10;40.90
38020;DHT22;23829;51.350;17.286;2023-04-01T05:02:43;25.00;40.90
38020;DHT22;23829;51.350;17.286;2023-04-01T05:05:09;25.00;41.10
38020;DHT22;23829;51.350;17.286;2023-04-01T05:07:37;25.30;40.90
38020;DHT22;23829;51.350;17.286;2023-04-01T05:10:03;25.40;40.70
38020;DHT22;23829;51.350;17.286;2023-04-01T05:12:30;25.20;40.70
38020;DHT22;23829;51.350;17.286;2023-04-01T05:15:02;25.40;40.60
38020;DHT22;23829;51.350;17.286;2023-04-01T05:17:29;25.60;40.60
38020;DHT22;23829;51.350;17.286;2023-04-01T05:19:55;25.50;40.40
38020;DHT22;23829;51.350;17.286;2023-04-01T05:22:22;25.40;40.70
38020;DHT22;23829;51.350;17.286;2023-04-01T05:24:48;25.40;40.90
38020;DHT22;23829;51.350;17.286;2023-04-01T05:27:15;25.40;40.90
38020;DHT22;23829;51.350;17.286;2023-04-01T05:29:42;25.40;40.80
38020;DHT22;23829;51.350;17.286;2023-04-01T05:32:23;25.30;40.80
38020;DHT22;23829;51.350;17.286;2023-04-01T05:34:53;25.30;41.10
38020;DHT22;23829;51.350;17.286;2023-04-01T05:37:20;25.30;41.10
38020;DHT22;23829;51.350;17.286;2023-04-01T05:39:46;25.60;40.70
38020;DHT22;23829;51.350;17.286;2023-04-01T05:42:12;25.30;40.50
38020;DHT22;23829;51.350;17.286;2023-04-01T05:44:40;25.20;41.50
38020;DHT22;23829;51.350;17.286;2023-04-01T05:47:07;25.30;41.30
38020;DHT22;23829;51.350;17.286;2023-04-01T05:49:33;25.40;41.10
38020;DHT22;23829;51.350;17.286;2023-04-01T05:52:01;25.30;41.10
38020;DHT22;23829;51.350;17.286;2023-04-01T05:54:28;25.40;41.20
38020;DHT22;23829;51.350;17.286;2023-04-01T05:56:55;25.30;41.50
38020;DHT22;23829;51.350;17.286;2023-04-01T05:59:21;25.10;41.40
38020;DHT22;23829;51.350;17.286;2023-04-01T06:01:48;24.90;41.90
38020;DHT22;23829;51.350;17.286;2023-04-01T06:04:16;25.20;41.80
38020;DHT22;23829;51.350;17.286;2023-04-01T06:06:43;25.40;41.30
38020;DHT22;23829;51.350;17.286;2023-04-01T06:09:19;25.40;41.70
38020;DHT22;23829;51.350;17.286;2023-04-01T06:18:12;25.30;41.80
38020;DHT22;23829;51.350;17.286;2023-04-01T06:24:02;25.30;41.40
38020;DHT22;23829;51.350;17.286;2023-04-01T06:36:05;25.40;41.40
38020;DHT22;23829;51.350;17.286;2023-04-01T06:54:03;25.50;41.50
38020;DHT22;23829;51.350;17.286;2023-04-01T07:00:02;25.40;41.40
38020;DHT22;23829;51.350;17.286;2023-04-01T07:02:39;25.50;41.60
38020;DHT22;23829;51.350;17.286;2023-04-01T07:05:08;25.60;41.60
38020;DHT22;23829;51.350;17.286;2023-04-01T07:07:45;25.50;41.80
38020;DHT22;23829;51.350;17.286;2023-04-01T07:13:49;25.90;41.50
38020;DHT22;23829;51.350;17.286;2023-04-01T07:19:22;25.60;41.60
38020;DHT22;23829;51.350;17.286;2023-04-01T07:25:14;25.50;41.70
38020;DHT22;23829;51.350;17.286;2023-04-01T07:27:44;25.70;41.80
38020;DHT22;23829;51.350;17.286;2023-04-01T07:30:16;25.50;42.20
38020;DHT22;23829;51.350;17.286;2023-04-01T07:43:20;25.70;41.80
38020;DHT22;23829;51.350;17.286;2023-04-01T07:46:23;25.90;41.60
38020;DHT22;23829;51.350;17.286;2023-04-01T07:49:20;25.90;41.70
38020;DHT22;23829;51.350;17.286;2023-04-01T07:52:02;25.90;41.60
38020;DHT22;23829;51.350;17.286;2023-04-01T08:00:00;25.90;41.70
38020;DHT22;23829;51.350;17.286;2023-04-01T08:09:00;25.60;42.40
38020;DHT22;23829;51.350;17.286;2023-04-01T08:15:07;26.00;41.80
38020;DHT22;23829;51.350;17.286;2023-04-01T08:18:20;25.80;42.10
38020;DHT22;23829;51.350;17.286;2023-04-01T08:21:02;25.60;42.80
38020;DHT22;23829;51.350;17.286;2023-04-01T08:23:40;25.70;42.00
38020;DHT22;23829;51.350;17.286;2023-04-01T08:29:14;24.90;43.20
38020;DHT22;23829;51.350;17.286;2023-04-01T08:32:03;24.60;43.90
38020;DHT22;23829;51.350;17.286;2023-04-01T08:34:37;24.10;44.70
38020;DHT22;23829;51.350;17.286;2023-04-01T08:37:19;24.20;44.40
38020;DHT22;23829;51.350;17.286;2023-04-01T08:39:55;24.40;44.30
38020;DHT22;23829;51.350;17.286;2023-04-01T08:42:48;24.70;43.90
38020;DHT22;23829;51.350;17.286;2023-04-01T08:57:29;25.60;42.30
38020;DHT22;23829;51.350;17.286;2023-04-01T09:03:12;25.60;42.40
38020;DHT22;23829;51.350;17.286;2023-04-01T09:05:44;25.70;42.70
38020;DHT22;23829;51.350;17.286;2023-04-01T09:22:21;25.60;42.90
38020;DHT22;23829;51.350;17.286;2023-04-01T09:37:17;25.60;43.00
38020;DHT22;23829;51.350;17.286;2023-04-01T09:40:12;25.60;43.00
38020;DHT22;23829;51.350;17.286;2023-04-01T09:45:40;25.90;42.60
38020;DHT22;23829;51.350;17.286;2023-04-01T09:48:41;25.30;43.30
38020;DHT22;23829;51.350;17.286;2023-04-01T10:12:05;25.20;43.60
38020;DHT22;23829;51.350;17.286;2023-04-01T10:41:46;26.40;42.70
38020;DHT22;23829;51.350;17.286;2023-04-01T10:44:35;26.70;42.50
38020;DHT22;23829;51.350;17.286;2023-04-01T10:56:55;25.90;42.40
38020;DHT22;23829;51.350;17.286;2023-04-01T11:00:07;25.90;42.10
38020;DHT22;23829;51.350;17.286;2023-04-01T11:14:25;26.40;42.30
38020;DHT22;23829;51.350;17.286;2023-04-01T11:26:41;26.30;42.50
38020;DHT22;23829;51.350;17.286;2023-04-01T11:29:27;26.10;42.70
38020;DHT22;23829;51.350;17.286;2023-04-01T11:32:25;26.40;42.90
38020;DHT22;23829;51.350;17.286;2023-04-01T11:38:03;27.00;42.50
38020;DHT22;23829;51.350;17.286;2023-04-01T11:41:09;26.90;42.10
38020;DHT22;23829;51.350;17.286;2023-04-01T11:44:24;26.90;42.30
38020;DHT22;23829;51.350;17.286;2023-04-01T11:47:34;27.10;42.40
38020;DHT22;23829;51.350;17.286;2023-04-01T12:14:43;27.70;39.20
38020;DHT22;23829;51.350;17.286;2023-04-01T12:23:32;27.20;39.50
38020;DHT22;23829;51.350;17.286;2023-04-01T12:26:25;27.70;39.60
38020;DHT22;23829;51.350;17.286;2023-04-01T12:35:11;27.40;39.80
38020;DHT22;23829;51.350;17.286;2023-04-01T12:37:57;27.60;40.20
38020;DHT22;23829;51.350;17.286;2023-04-01T12:40:50;28.00;39.30
38020;DHT22;23829;51.350;17.286;2023-04-01T12:59:57;27.70;37.70
38020;DHT22;23829;51.350;17.286;2023-04-01T13:05:42;27.30;39.20
38020;DHT22;23829;51.350;17.286;2023-04-01T13:11:58;26.80;39.30
38020;DHT22;23829;51.350;17.286;2023-04-01T13:20:14;26.70;39.90
38020;DHT22;23829;51.350;17.286;2023-04-01T13:22:50;27.00;39.80
38020;DHT22;23829;51.350;17.286;2023-04-01T13:25:34;26.90;39.50
38020;DHT22;23829;51.350;17.286;2023-04-01T13:28:25;27.30;39.00
38020;DHT22;23829;51.350;17.286;2023-04-01T13:31:25;26.80;39.30
38020;DHT22;23829;51.350;17.286;2023-04-01T13:34:39;27.00;40.10
38020;DHT22;23829;51.350;17.286;2023-04-01T13:42:49;27.00;39.40
38020;DHT22;23829;51.350;17.286;2023-04-01T13:48:22;26.60;40.50
38020;DHT22;23829;51.350;17.286;2023-04-01T13:51:28;26.50;40.40
38020;DHT22;23829;51.350;17.286;2023-04-01T13:59:40;27.20;39.80
38020;DHT22;23829;51.350;17.286;2023-04-01T14:13:23;26.80;40.20
38020;DHT22;23829;51.350;17.286;2023-04-01T14:18:42;25.90;41.70
38020;DHT22;23829;51.350;17.286;2023-04-01T14:21:23;25.60;42.80
38020;DHT22;23829;51.350;17.286;2023-04-01T14:24:18;26.20;42.50
38020;DHT22;23829;51.350;17.286;2023-04-01T14:27:15;26.40;41.90
38020;DHT22;23829;51.350;17.286;2023-04-01T14:35:43;26.60;42.00
38020;DHT22;23829;51.350;17.286;2023-04-01T14:41:35;26.90;41.70
38020;DHT22;23829;51.350;17.286;2023-04-01T14:50:02;27.30;41.00
38020;DHT22;23829;51.350;17.286;2023-04-01T14:52:36;27.20;40.80
38020;DHT22;23829;51.350;17.286;2023-04-01T14:55:28;27.40;40.80
38020;DHT22;23829;51.350;17.286;2023-04-01T14:58:14;27.30;40.70
38020;DHT22;23829;51.350;17.286;2023-04-01T15:04:13;27.40;40.50
38020;DHT22;23829;51.350;17.286;2023-04-01T15:12:15;27.30;40.70
38020;DHT22;23829;51.350;17.286;2023-04-01T15:17:35;27.20;40.70
38020;DHT22;23829;51.350;17.286;2023-04-01T15:28:39;27.40;40.30
38020;DHT22;23829;51.350;17.286;2023-04-01T15:39:35;27.30;40.30
38020;DHT22;23829;51.350;17.286;2023-04-01T15:45:00;26.70;40.70
38020;DHT22;23829;51.350;17.286;2023-04-01T15:47:45;26.40;41.20
38020;DHT22;23829;51.350;17.286;2023-04-01T15:50:37;26.50;40.90
38020;DHT22;23829;51.350;17.286;2023-04-01T15:55:58;26.70;40.60
38020;DHT22;23829;51.350;17.286;2023-04-01T16:04:07;26.70;41.10
38020;DHT22;23829;51.350;17.286;2023-04-01T16:07:16;26.70;41.10
38020;DHT22;23829;51.350;17.286;2023-04-01T16:15:27;26.80;40.50
38020;DHT22;23829;51.350;17.286;2023-04-01T16:21:27;26.90;39.10
38020;DHT22;23829;51.350;17.286;2023-04-01T16:26:43;26.40;39.70
38020;DHT22;23829;51.350;17.286;2023-04-01T16:34:47;26.30;40.00
38020;DHT22;23829;51.350;17.286;2023-04-01T16:37:28;25.80;40.50
38020;DHT22;23829;51.350;17.286;2023-04-01T16:45:45;24.70;42.10
38020;DHT22;23829;51.350;17.286;2023-04-01T16:48:43;24.70;42.90
38020;DHT22;23829;51.350;17.286;2023-04-01T16:51:13;24.80;42.20
38020;DHT22;23829;51.350;17.286;2023-04-01T16:53:43;24.70;42.20
38020;DHT22;23829;51.350;17.286;2023-04-01T16:56:24;24.70;42.20
38020;DHT22;23829;51.350;17.286;2023-04-01T16:59:13;24.90;41.80
38020;DHT22;23829;51.350;17.286;2023-04-01T17:01:48;23.90;43.50
38020;DHT22;23829;51.350;17.286;2023-04-01T17:05:01;23.80;44.10
38020;DHT22;23829;51.350;17.286;2023-04-01T17:21:05;24.10;42.80
38020;DHT22;23829;51.350;17.286;2023-04-01T17:23:59;24.50;42.30
38020;DHT22;23829;51.350;17.286;2023-04-01T17:29:12;24.30;42.50
38020;DHT22;23829;51.350;17.286;2023-04-01T17:31:53;24.10;42.40
38020;DHT22;23829;51.350;17.286;2023-04-01T17:34:43;24.10;42.50
38020;DHT22;23829;51.350;17.286;2023-04-01T17:39:57;23.90;42.80
38020;DHT22;23829;51.350;17.286;2023-04-01T17:42:33;23.90;42.80
38020;DHT22;23829;51.350;17.286;2023-04-01T17:45:27;24.00;43.30
38020;DHT22;23829;51.350;17.286;2023-04-01T17:48:03;24.00;42.90
38020;DHT22;23829;51.350;17.286;2023-04-01T17:54:05;24.10;42.30
38020;DHT22;23829;51.350;17.286;2023-04-01T18:02:42;24.20;42.60
38020;DHT22;23829;51.350;17.286;2023-04-01T18:05:33;24.60;41.70
38020;DHT22;23829;51.350;17.286;2023-04-01T18:08:26;24.70;41.30
38020;DHT22;23829;51.350;17.286;2023-04-01T18:14:26;24.20;42.00
38020;DHT22;23829;51.350;17.286;2023-04-01T18:17:25;24.40;41.70
38020;DHT22;23829;51.350;17.286;2023-04-01T18:19:58;24.40;41.70
38020;DHT22;23829;51.350;17.286;2023-04-01T18:25:41;24.40;41.20
38020;DHT22;23829;51.350;17.286;2023-04-01T18:28:48;24.40;41.40
38020;DHT22;23829;51.350;17.286;2023-04-01T18:31:38;23.90;42.60
38020;DHT22;23829;51.350;17.286;2023-04-01T18:40:02;24.60;41.30
38020;DHT22;23829;51.350;17.286;2023-04-01T18:45:27;24.90;40.80
38020;DHT22;23829;51.350;17.286;2023-04-01T18:50:36;24.30;41.60
38020;DHT22;23829;51.350;17.286;2023-04-01T18:53:23;24.40;41.50
38020;DHT22;23829;51.350;17.286;2023-04-01T18:56:38;24.40;41.20
38020;DHT22;23829;51.350;17.286;2023-04-01T18:58:54;24.20;41.20
38020;DHT22;23829;51.350;17.286;2023-04-01T19:01:57;23.90;41.90
38020;DHT22;23829;51.350;17.286;2023-04-01T19:04:39;24.20;42.20
38020;DHT22;23829;51.350;17.286;2023-04-01T19:10:25;24.00;41.90
38020;DHT22;23829;51.350;17.286;2023-04-01T19:13:43;23.70;42.70
38020;DHT22;23829;51.350;17.286;2023-04-01T19:24:10;23.40;42.80
38020;DHT22;23829;51.350;17.286;2023-04-01T19:27:18;23.50;42.40
38020;DHT22;23829;51.350;17.286;2023-04-01T19:35:43;22.70;43.60
38020;DHT22;23829;51.350;17.286;2023-04-01T19:38:31;22.80;44.20
38020;DHT22;23829;51.350;17.286;2023-04-01T19:49:51;22.30;44.70
38020;DHT22;23829;51.350;17.286;2023-04-01T20:00:50;22.60;43.90
38020;DHT22;23829;51.350;17.286;2023-04-01T20:06:35;23.60;42.80
38020;DHT22;23829;51.350;17.286;2023-04-01T20:17:20;23.10;42.70
38020;DHT22;23829;51.350;17.286;2023-04-01T20:19:55;22.90;42.90
38020;DHT22;23829;51.350;17.286;2023-04-01T20:24:52;22.90;42.80
38020;DHT22;23829;51.350;17.286;2023-04-01T20:27:25;23.20;42.90
38020;DHT22;23829;51.350;17.286;2023-04-01T20:39:03;23.10;41.90
38020;DHT22;23829;51.350;17.286;2023-04-01T20:41:44;22.40;43.00
38020;DHT22;23829;51.350;17.286;2023-04-01T20:44:43;22.60;43.60
38020;DHT22;23829;51.350;17.286;2023-04-01T20:52:57;23.00;42.20
38020;DHT22;23829;51.350;17.286;2023-04-01T21:03:23;22.90;42.30
38020;DHT22;23829;51.350;17.286;2023-04-01T21:06:10;22.80;42.10
38020;DHT22;23829;51.350;17.286;2023-04-01T21:17:29;22.50;42.80
38020;DHT22;23829;51.350;17.286;2023-04-01T21:28:11;22.80;43.00
38020;DHT22;23829;51.350;17.286;2023-04-01T21:42:16;21.80;44.20
38020;DHT22;23829;51.350;17.286;2023-04-01T21:45:27;21.90;44.40
38020;DHT22;23829;51.350;17.286;2023-04-01T22:05:02;21.40;44.50
38020;DHT22;23829;51.350;17.286;2023-04-01T22:10:41;21.90;44.00
38020;DHT22;23829;51.350;17.286;2023-04-01T22:29:25;21.10;44.20
38020;DHT22;23829;51.350;17.286;2023-04-01T22:32:04;21.10;44.60
38020;DHT22;23829;51.350;17.286;2023-04-01T22:35:11;20.60;45.10
38020;DHT22;23829;51.350;17.286;2023-04-01T22:43:12;21.10;44.20
38020;DHT22;23829;51.350;17.286;2023-04-01T22:51:13;21.10;43.60
38020;DHT22;23829;51.350;17.286;2023-04-01T22:56:16;20.80;44.10
38020;DHT22;23829;51.350;17.286;2023-04-01T22:58:54;20.70;45.00
38020;DHT22;23829;51.350;17.286;2023-04-01T23:01:25;20.90;43.80
38020;DHT22;23829;51.350;17.286;2023-04-01T23:03:55;20.60;44.40
38020;DHT22;23829;51.350;17.286;2023-04-01T23:06:27;20.30;45.10
38020;DHT22;23829;51.350;17.286;2023-04-01T23:09:11;20.60;45.00
38020;DHT22;23829;51.350;17.286;2023-04-01T23:12:08;20.80;43.50
38020;DHT22;23829;51.350;17.286;2023-04-01T23:14:56;20.40;44.00
38020;DHT22;23829;51.350;17.286;2023-04-01T23:17:42;20.80;44.30
38020;DHT22;23829;51.350;17.286;2023-04-01T23:20:32;20.10;44.60
38020;DHT22;23829;51.350;17.286;2023-04-01T23:28:23;20.00;44.50
38020;DHT22;23829;51.350;17.286;2023-04-01T23:30:55;20.10;44.50
38020;DHT22;23829;51.350;17.286;2023-04-01T23:33:30;19.40;45.20
38020;DHT22;23829;51.350;17.286;2023-04-01T23:36:18;19.60;45.20
38020;DHT22;23829;51.350;17.286;2023-04-01T23:38:48;19.90;44.50
38020;DHT22;23829;51.350;17.286;2023-04-01T23:41:24;19.50;44.80
38020;DHT22;23829;51.350;17.286;2023-04-01T23:43:59;19.80;44.20
38020;DHT22;23829;51.350;17.286;2023-04-01T23:46:28;20.00;44.10
38020;DHT22;23829;51.350;17.286;2023-04-01T23:48:55;19.60;44.50
38020;DHT22;23829;51.350;17.286;2023-04-01T23:51:26;19.50;44.60
38020;DHT22;23829;51.350;17.286;2023-04-01T23:54:18;19.80;44.60
38020;DHT22;23829;51.350;17.286;2023-04-01T23:56:51;20.10;43.80
38020;DHT22;23829;51.350;17.286;2023-04-01T23:59:37;19.60;43.70
